Terminal Aerodrome Forecast
Issued by NWS Sterling, VA

Home | Current Version | Previous Version | Text Only | Print | Product List | Glossary On
Versions: 1 2 3 4 5 6 7 8 9 10 11 12 13 14 15 16 17
268
FTUS41 KLWX 231734
TAFMRB
TAF
KMRB 231734Z 2318/2418 28015G21KT P6SM BKN070
     FM232200 27015G24KT P6SM SCT070
     FM240000 27011KT P6SM SKC
     FM241400 30014G21KT P6SM SCT040=

USA.gov is the U.S. government's official web portal to all federal, state and local government web resources and services.